createdAt,value
2023-11-29T00:00:29.339Z,7.68
2023-11-29T00:02:56.296Z,8.13
2023-11-29T00:05:27.201Z,8.27
2023-11-29T00:08:00.256Z,8.02
2023-11-29T00:10:27.203Z,7.93
2023-11-29T00:12:54.059Z,7.25
2023-11-29T00:15:20.943Z,7.28
2023-11-29T00:17:47.945Z,7.25
2023-11-29T00:20:15.044Z,6.93
2023-11-29T00:22:42.096Z,6.68
2023-11-29T00:25:10.024Z,7.18
2023-11-29T00:27:36.964Z,6.93
2023-11-29T00:30:04.047Z,6.85
2023-11-29T00:32:31.078Z,6.60
2023-11-29T00:34:58.005Z,7.20
2023-11-29T00:37:24.844Z,7.05
2023-11-29T00:39:51.751Z,6.90
2023-11-29T00:42:18.622Z,6.55
2023-11-29T00:44:45.544Z,6.95
2023-11-29T00:47:12.531Z,6.95
2023-11-29T00:49:39.435Z,6.53
2023-11-29T00:52:06.548Z,6.80
2023-11-29T00:54:33.516Z,6.78
2023-11-29T00:57:00.325Z,6.57
2023-11-29T00:59:27.194Z,6.40
2023-11-29T01:01:54.117Z,6.18
2023-11-29T01:04:21.101Z,6.70
2023-11-29T01:06:48.263Z,6.47
2023-11-29T01:09:15.194Z,7.03
2023-11-29T01:11:42.166Z,6.50
2023-11-29T01:14:09.823Z,6.72
2023-11-29T01:16:36.745Z,7.00
2023-11-29T01:19:03.862Z,7.10
2023-11-29T01:21:35.524Z,6.47
2023-11-29T01:24:04.518Z,6.55
2023-11-29T01:26:31.525Z,6.95
2023-11-29T01:28:58.385Z,6.85
2023-11-29T01:31:28.172Z,6.88
2023-11-29T01:33:55.820Z,6.32
2023-11-29T01:36:22.933Z,6.82
2023-11-29T01:38:51.316Z,6.68
2023-11-29T01:41:18.319Z,6.63
2023-11-29T01:43:45.243Z,6.50
2023-11-29T01:46:12.393Z,6.18
2023-11-29T01:48:40.268Z,6.60
2023-11-29T01:51:09.048Z,6.38
2023-11-29T01:53:39.374Z,6.70
2023-11-29T01:56:07.458Z,6.25
2023-11-29T01:58:34.409Z,6.25
2023-11-29T02:01:01.402Z,6.03
2023-11-29T02:03:29.555Z,6.10
2023-11-29T02:05:56.917Z,6.07
2023-11-29T02:08:24.925Z,6.40
2023-11-29T02:10:52.043Z,6.45
2023-11-29T02:13:19.413Z,6.40
2023-11-29T02:15:46.343Z,5.72
2023-11-29T02:18:14.609Z,6.05
2023-11-29T02:20:42.021Z,6.30
2023-11-29T02:23:56.597Z,6.25
2023-11-29T02:26:23.599Z,5.97
2023-11-29T02:28:50.493Z,6.10
2023-11-29T02:31:17.488Z,6.30
2023-11-29T02:33:44.372Z,6.38
2023-11-29T02:36:11.225Z,6.22
2023-11-29T02:38:38.414Z,6.20
2023-11-29T02:41:05.489Z,6.07
2023-11-29T02:43:32.397Z,7.07
2023-11-29T02:45:59.324Z,7.25
2023-11-29T02:48:26.312Z,7.25
2023-11-29T02:50:53.396Z,6.93
2023-11-29T02:53:20.382Z,6.82
2023-11-29T02:55:47.268Z,6.60
2023-11-29T02:58:14.218Z,6.00
2023-11-29T03:00:41.078Z,6.60
2023-11-29T03:03:08.618Z,7.25
2023-11-29T03:05:37.204Z,6.30
2023-11-29T03:08:05.551Z,7.20
2023-11-29T03:10:32.508Z,6.80
2023-11-29T03:13:00.698Z,6.68
2023-11-29T03:15:27.573Z,6.43
2023-11-29T03:17:54.495Z,6.18
2023-11-29T03:20:21.666Z,5.72
2023-11-29T03:22:48.530Z,6.15
2023-11-29T03:25:15.482Z,6.07
2023-11-29T03:27:42.331Z,5.20
2023-11-29T03:30:09.666Z,5.78
2023-11-29T03:32:36.575Z,6.18
2023-11-29T03:35:03.503Z,5.60
2023-11-29T03:37:30.406Z,5.60
2023-11-29T03:39:57.266Z,5.80
2023-11-29T03:42:24.225Z,5.60
2023-11-29T03:44:51.199Z,5.40
2023-11-29T03:47:18.640Z,5.50
2023-11-29T03:49:46.095Z,5.30
2023-11-29T03:52:12.933Z,5.20
2023-11-29T03:54:39.793Z,5.70
2023-11-29T03:57:08.124Z,5.15
2023-11-29T03:59:36.475Z,4.95
2023-11-29T04:02:03.788Z,4.88
2023-11-29T04:04:30.710Z,4.90
2023-11-29T04:06:57.591Z,5.20
2023-11-29T04:09:24.659Z,5.18
2023-11-29T04:11:51.940Z,5.40
2023-11-29T04:14:18.882Z,5.07
2023-11-29T04:16:46.005Z,5.18
2023-11-29T04:19:14.197Z,5.35
2023-11-29T04:21:41.349Z,5.80
2023-11-29T04:24:08.314Z,5.57
2023-11-29T04:26:37.826Z,5.07
2023-11-29T04:29:11.135Z,4.75
2023-11-29T04:31:39.054Z,5.07
2023-11-29T04:34:14.218Z,5.13
2023-11-29T04:36:51.302Z,4.70
2023-11-29T04:39:19.422Z,4.97
2023-11-29T04:41:46.619Z,5.40
2023-11-29T04:44:14.927Z,5.20
2023-11-29T04:46:42.010Z,5.15
2023-11-29T04:49:09.021Z,5.43
2023-11-29T04:51:35.996Z,5.43
2023-11-29T04:54:03.056Z,5.47
2023-11-29T04:56:31.440Z,5.60
2023-11-29T04:58:59.019Z,5.50
2023-11-29T05:01:26.038Z,5.40
2023-11-29T05:03:52.991Z,6.40
2023-11-29T05:06:21.324Z,5.70
2023-11-29T05:08:48.250Z,6.65
2023-11-29T05:11:15.213Z,6.30
2023-11-29T05:13:42.172Z,6.82
2023-11-29T05:16:09.648Z,7.85
2023-11-29T05:18:36.641Z,7.05
2023-11-29T05:21:04.169Z,6.38
2023-11-29T05:23:31.416Z,6.72
2023-11-29T05:25:58.270Z,6.97
2023-11-29T05:28:26.452Z,7.22
2023-11-29T05:30:54.353Z,7.18
2023-11-29T05:33:24.690Z,5.57
2023-11-29T05:35:54.305Z,6.05
2023-11-29T05:38:21.466Z,6.43
2023-11-29T05:40:48.389Z,6.40
2023-11-29T05:43:15.302Z,6.72
2023-11-29T05:45:42.270Z,5.80
2023-11-29T05:48:09.193Z,6.57
2023-11-29T05:50:37.016Z,6.60
2023-11-29T05:53:04.180Z,7.30
2023-11-29T05:55:32.623Z,7.10
2023-11-29T05:57:59.643Z,6.82
2023-11-29T06:00:31.491Z,7.20
2023-11-29T06:03:01.372Z,7.50
2023-11-29T06:05:29.580Z,7.32
2023-11-29T06:07:56.559Z,7.07
2023-11-29T06:10:23.997Z,7.10
2023-11-29T06:12:50.906Z,8.65
2023-11-29T06:15:17.793Z,7.38
2023-11-29T06:17:46.520Z,7.40
2023-11-29T06:20:13.760Z,7.20
2023-11-29T06:22:40.741Z,6.90
2023-11-29T06:25:09.281Z,6.53
2023-11-29T06:27:37.457Z,9.20
2023-11-29T06:30:08.169Z,6.90
2023-11-29T06:32:37.892Z,6.60
2023-11-29T06:35:05.348Z,6.38
2023-11-29T06:37:34.674Z,6.55
2023-11-29T06:40:01.657Z,6.53
2023-11-29T06:42:28.973Z,6.45
2023-11-29T06:44:55.972Z,7.13
2023-11-29T06:47:22.838Z,7.32
2023-11-29T06:49:50.508Z,7.13
2023-11-29T06:52:17.487Z,6.85
2023-11-29T06:54:44.314Z,6.75
2023-11-29T06:57:11.129Z,6.65
2023-11-29T06:59:38.012Z,6.78
2023-11-29T07:02:06.853Z,7.40
2023-11-29T07:04:35.077Z,6.55
2023-11-29T07:07:02.799Z,7.00
2023-11-29T07:09:29.784Z,7.13
2023-11-29T07:11:57.375Z,7.47
2023-11-29T07:14:25.129Z,7.43
2023-11-29T07:16:52.385Z,7.00
2023-11-29T07:19:20.011Z,7.07
2023-11-29T07:21:46.968Z,7.10
2023-11-29T07:24:14.190Z,7.68
2023-11-29T07:26:41.225Z,7.15
2023-11-29T07:29:09.491Z,7.40
2023-11-29T07:31:37.190Z,6.72
2023-11-29T07:34:04.280Z,6.55
2023-11-29T07:36:32.614Z,6.93
2023-11-29T07:39:00.613Z,7.65
2023-11-29T07:41:28.472Z,8.00
2023-11-29T07:43:55.734Z,7.57
2023-11-29T07:46:22.763Z,6.28
2023-11-29T07:48:49.695Z,8.35
2023-11-29T07:51:16.602Z,7.22
2023-11-29T07:53:46.107Z,7.25
2023-11-29T07:56:13.582Z,7.22
2023-11-29T07:58:40.707Z,7.47
2023-11-29T08:01:08.222Z,7.00
2023-11-29T08:03:35.905Z,6.88
2023-11-29T08:06:03.154Z,6.30
2023-11-29T08:08:30.500Z,6.55
2023-11-29T08:10:57.524Z,7.18
2023-11-29T08:13:25.117Z,7.45
2023-11-29T08:15:52.090Z,7.70
2023-11-29T08:18:19.222Z,7.97
2023-11-29T08:20:46.261Z,8.07
2023-11-29T08:23:13.201Z,8.40
2023-11-29T08:25:40.116Z,8.70
2023-11-29T08:28:07.020Z,8.80
2023-11-29T08:30:33.898Z,8.57
2023-11-29T08:33:00.905Z,8.65
2023-11-29T08:35:27.918Z,9.00
2023-11-29T08:37:55.055Z,8.82
2023-11-29T08:40:21.885Z,9.05
2023-11-29T08:42:48.786Z,8.98
2023-11-29T08:45:15.773Z,9.57
2023-11-29T08:47:42.709Z,9.43
2023-11-29T08:50:10.672Z,9.32
2023-11-29T08:52:37.615Z,9.20
2023-11-29T08:55:06.245Z,8.63
2023-11-29T08:57:34.715Z,9.52
2023-11-29T09:00:01.739Z,9.02
2023-11-29T09:04:55.707Z,10.63
2023-11-29T09:07:22.994Z,10.50
2023-11-29T09:09:50.014Z,10.50
2023-11-29T09:12:17.024Z,11.13
2023-11-29T09:14:45.143Z,10.68
2023-11-29T09:17:12.220Z,10.90
2023-11-29T09:19:39.775Z,11.13
2023-11-29T09:22:06.717Z,10.32
2023-11-29T09:24:33.617Z,11.38
2023-11-29T09:27:00.774Z,11.07
2023-11-29T09:29:27.880Z,10.63
2023-11-29T09:31:55.065Z,11.10
2023-11-29T09:34:23.761Z,11.23
2023-11-29T09:36:51.827Z,13.75
2023-11-29T09:39:19.587Z,14.63
2023-11-29T09:41:47.006Z,14.10
2023-11-29T09:44:15.063Z,14.13
2023-11-29T09:46:43.255Z,13.02
2023-11-29T09:49:10.307Z,13.68
2023-11-29T09:51:37.262Z,12.80
2023-11-29T09:54:05.114Z,12.68
2023-11-29T09:56:32.226Z,12.50
2023-11-29T09:58:59.638Z,12.77
2023-11-29T10:01:27.790Z,13.13
2023-11-29T10:04:05.886Z,14.30
2023-11-29T10:06:36.066Z,12.43
2023-11-29T10:09:15.418Z,13.10
2023-11-29T10:11:44.439Z,11.85
2023-11-29T10:14:12.206Z,12.48
2023-11-29T10:16:39.317Z,12.55
2023-11-29T10:19:11.235Z,13.70
2023-11-29T10:21:43.012Z,11.57
2023-11-29T10:24:10.549Z,14.77
2023-11-29T10:26:37.974Z,14.07
2023-11-29T10:29:04.978Z,13.80
2023-11-29T10:31:33.389Z,15.23
2023-11-29T10:34:01.871Z,16.50
2023-11-29T10:36:28.956Z,16.45
2023-11-29T10:39:09.908Z,15.60
2023-11-29T10:41:52.816Z,15.52
2023-11-29T10:44:25.987Z,14.00
2023-11-29T10:47:24.682Z,13.80
2023-11-29T10:50:07.202Z,13.15
2023-11-29T10:52:37.012Z,15.52
2023-11-29T10:55:06.643Z,14.77
2023-11-29T10:57:36.314Z,14.43
2023-11-29T11:00:08.586Z,15.73
2023-11-29T11:02:35.753Z,17.52
2023-11-29T11:05:12.325Z,17.83
2023-11-29T11:07:42.677Z,17.05
2023-11-29T11:10:13.984Z,15.85
2023-11-29T11:12:42.309Z,15.68
2023-11-29T11:15:21.011Z,14.50
2023-11-29T11:18:03.430Z,14.38
2023-11-29T11:20:44.792Z,14.32
2023-11-29T11:23:21.430Z,13.75
2023-11-29T11:25:48.677Z,13.43
2023-11-29T11:28:34.311Z,12.90
2023-11-29T11:31:19.409Z,13.55
2023-11-29T11:33:55.630Z,13.35
2023-11-29T11:36:24.078Z,12.90
2023-11-29T11:38:54.525Z,14.38
2023-11-29T11:41:21.495Z,13.50
2023-11-29T11:43:48.692Z,14.15
2023-11-29T11:46:17.324Z,13.45
2023-11-29T11:48:46.303Z,13.60
2023-11-29T11:51:13.290Z,13.70
2023-11-29T11:53:44.432Z,12.80
2023-11-29T11:56:21.710Z,14.32
2023-11-29T11:58:51.033Z,14.02
2023-11-29T12:01:17.928Z,13.43
2023-11-29T12:03:45.171Z,14.57
2023-11-29T12:06:13.778Z,14.90
2023-11-29T12:08:40.688Z,14.82
2023-11-29T12:11:12.023Z,14.05
2023-11-29T12:13:38.901Z,14.80
2023-11-29T12:16:27.823Z,14.00
2023-11-29T12:18:55.066Z,14.32
2023-11-29T12:21:22.951Z,14.95
2023-11-29T12:23:50.034Z,15.07
2023-11-29T12:26:17.804Z,15.15
2023-11-29T12:28:44.648Z,15.27
2023-11-29T12:31:14.110Z,14.20
2023-11-29T12:33:42.517Z,14.02
2023-11-29T12:36:11.238Z,14.00
2023-11-29T12:38:38.637Z,14.45
2023-11-29T12:41:06.877Z,13.88
2023-11-29T12:43:34.165Z,13.73
2023-11-29T12:46:01.674Z,14.25
2023-11-29T12:48:29.578Z,13.73
2023-11-29T12:50:56.593Z,14.48
2023-11-29T12:53:23.519Z,14.27
2023-11-29T12:55:50.940Z,13.75
2023-11-29T12:58:18.067Z,14.85
2023-11-29T13:00:46.761Z,13.05
2023-11-29T13:03:14.321Z,13.55
2023-11-29T13:05:42.786Z,13.43
2023-11-29T13:08:09.733Z,13.48
2023-11-29T13:10:36.731Z,13.55
2023-11-29T13:13:04.441Z,13.85
2023-11-29T13:15:31.405Z,14.13
2023-11-29T13:17:58.421Z,13.98
2023-11-29T13:20:25.588Z,13.52
2023-11-29T13:22:53.173Z,13.82
2023-11-29T13:25:20.252Z,13.85
2023-11-29T13:27:47.323Z,13.40
2023-11-29T13:30:15.960Z,13.88
2023-11-29T13:32:44.530Z,12.65
2023-11-29T13:35:12.831Z,14.15
2023-11-29T13:37:39.907Z,13.18
2023-11-29T13:40:07.829Z,13.73
2023-11-29T13:42:34.909Z,13.07
2023-11-29T13:45:05.672Z,13.13
2023-11-29T13:47:33.594Z,11.82
2023-11-29T13:50:00.571Z,12.07
2023-11-29T13:52:28.407Z,12.55
2023-11-29T13:54:56.028Z,12.73
2023-11-29T13:57:24.493Z,12.57
2023-11-29T13:59:51.360Z,13.00
2023-11-29T14:02:19.466Z,12.82
2023-11-29T14:04:47.996Z,13.93
2023-11-29T14:07:15.457Z,13.82
2023-11-29T14:09:42.858Z,13.93
2023-11-29T14:12:10.206Z,14.25
2023-11-29T14:14:37.215Z,14.48
2023-11-29T14:17:04.303Z,13.35
2023-11-29T14:19:31.209Z,14.05
2023-11-29T14:21:58.218Z,13.75
2023-11-29T14:24:25.116Z,14.07
2023-11-29T14:26:54.368Z,15.82
2023-11-29T14:29:23.275Z,14.60
2023-11-29T14:31:51.888Z,14.10
2023-11-29T14:34:19.396Z,15.40
2023-11-29T14:36:48.132Z,15.82
2023-11-29T14:39:15.582Z,15.65
2023-11-29T14:41:44.478Z,15.43
2023-11-29T14:44:11.474Z,16.15
2023-11-29T14:46:38.365Z,16.05
2023-11-29T14:49:09.567Z,15.35
2023-11-29T14:51:42.132Z,15.20
2023-11-29T14:54:09.395Z,15.27
2023-11-29T14:56:38.729Z,14.40
2023-11-29T14:59:06.026Z,15.13
2023-11-29T15:01:33.073Z,15.15
2023-11-29T15:04:00.700Z,14.30
2023-11-29T15:06:27.761Z,15.32
2023-11-29T15:08:54.713Z,15.60
2023-11-29T15:11:21.703Z,15.75
2023-11-29T15:13:48.623Z,15.07
2023-11-29T15:16:15.634Z,16.02
2023-11-29T15:18:42.666Z,15.10
2023-11-29T15:21:09.824Z,16.02
2023-11-29T15:23:36.698Z,16.85
2023-11-29T15:26:03.645Z,17.50
2023-11-29T15:28:31.302Z,17.15
2023-11-29T15:30:58.154Z,15.52
2023-11-29T15:33:25.271Z,16.38
2023-11-29T15:35:54.393Z,16.08
2023-11-29T15:38:22.031Z,15.57
2023-11-29T15:40:48.966Z,15.65
2023-11-29T15:43:16.018Z,16.00
2023-11-29T15:45:42.947Z,16.00
2023-11-29T15:48:09.993Z,14.73
2023-11-29T15:50:36.978Z,14.60
2023-11-29T15:53:04.333Z,14.30
2023-11-29T15:55:31.207Z,13.10
2023-11-29T15:58:00.010Z,12.82
2023-11-29T16:00:27.786Z,13.75
2023-11-29T16:02:55.550Z,12.55
2023-11-29T16:05:22.909Z,12.70
2023-11-29T16:07:51.883Z,13.20
2023-11-29T16:10:20.309Z,12.23
2023-11-29T16:12:47.291Z,13.20
2023-11-29T16:15:14.356Z,26.13
2023-11-29T16:17:41.287Z,17.85
2023-11-29T16:20:08.882Z,21.50
2023-11-29T16:22:35.849Z,20.60
2023-11-29T16:25:02.844Z,15.75
2023-11-29T16:27:36.363Z,13.93
2023-11-29T16:30:06.939Z,13.88
2023-11-29T16:32:35.010Z,13.70
2023-11-29T16:35:02.214Z,14.05
2023-11-29T16:37:30.334Z,14.45
2023-11-29T16:39:58.542Z,15.80
2023-11-29T16:42:25.931Z,18.30
2023-11-29T16:44:52.964Z,21.65
2023-11-29T16:47:20.016Z,21.85
2023-11-29T16:49:46.966Z,19.77
2023-11-29T16:52:15.030Z,19.75
2023-11-29T16:54:41.903Z,20.95
2023-11-29T16:57:09.177Z,18.55
2023-11-29T16:59:37.350Z,15.98
2023-11-29T17:02:04.556Z,15.25
2023-11-29T17:04:31.531Z,15.63
2023-11-29T17:06:58.413Z,17.13
2023-11-29T17:09:25.390Z,18.90
2023-11-29T17:11:52.356Z,16.73
2023-11-29T17:14:19.321Z,16.80
2023-11-29T17:16:46.274Z,16.35
2023-11-29T17:19:13.431Z,16.73
2023-11-29T17:21:40.308Z,23.05
2023-11-29T17:24:08.412Z,23.45
2023-11-29T17:26:36.252Z,21.05
2023-11-29T17:29:03.477Z,23.80
2023-11-29T17:31:31.664Z,22.05
2023-11-29T17:33:58.635Z,18.30
2023-11-29T17:36:26.813Z,18.70
2023-11-29T17:38:53.696Z,20.85
2023-11-29T17:41:20.552Z,17.15
2023-11-29T17:43:47.529Z,15.82
2023-11-29T17:46:14.568Z,15.38
2023-11-29T17:48:41.550Z,15.85
2023-11-29T17:51:08.959Z,15.30
2023-11-29T17:53:36.067Z,15.68
2023-11-29T17:56:03.100Z,15.23
2023-11-29T17:58:29.978Z,16.23
2023-11-29T18:00:56.803Z,15.35
2023-11-29T18:03:25.171Z,16.45
2023-11-29T18:05:52.118Z,16.60
2023-11-29T18:08:19.072Z,17.05
2023-11-29T18:10:51.521Z,18.52
2023-11-29T18:13:21.163Z,17.08
2023-11-29T18:15:48.838Z,15.82
2023-11-29T18:18:15.896Z,16.95
2023-11-29T18:20:48.144Z,16.67
2023-11-29T18:23:15.133Z,16.38
2023-11-29T18:25:52.047Z,16.30
2023-11-29T18:28:23.643Z,16.52
2023-11-29T18:30:50.702Z,16.13
2023-11-29T18:33:17.914Z,16.40
2023-11-29T18:35:45.002Z,17.52
2023-11-29T18:38:11.993Z,17.92
2023-11-29T18:40:38.853Z,18.23
2023-11-29T18:43:05.697Z,17.20
2023-11-29T18:45:33.113Z,17.80
2023-11-29T18:48:19.011Z,18.73
2023-11-29T18:50:46.049Z,17.42
2023-11-29T18:53:13.620Z,16.90
2023-11-29T18:55:40.744Z,18.15
2023-11-29T18:58:10.535Z,20.67
2023-11-29T19:00:37.520Z,19.52
2023-11-29T19:03:04.709Z,18.38
2023-11-29T19:05:31.884Z,17.92
2023-11-29T19:07:58.759Z,17.85
2023-11-29T19:10:25.743Z,18.17
2023-11-29T19:12:52.591Z,17.83
2023-11-29T19:15:19.631Z,18.10
2023-11-29T19:17:46.985Z,17.15
2023-11-29T19:20:13.936Z,17.73
2023-11-29T19:22:41.134Z,17.98
2023-11-29T19:25:08.915Z,16.83
2023-11-29T19:27:35.828Z,15.98
2023-11-29T19:30:04.269Z,15.02
2023-11-29T19:32:31.217Z,15.30
2023-11-29T19:34:58.178Z,15.65
2023-11-29T19:37:26.209Z,16.08
2023-11-29T19:39:53.462Z,15.25
2023-11-29T19:42:20.390Z,15.85
2023-11-29T19:44:47.603Z,15.10
2023-11-29T19:47:16.363Z,15.32
2023-11-29T19:49:44.281Z,16.08
2023-11-29T19:52:11.418Z,15.18
2023-11-29T19:54:39.688Z,16.58
2023-11-29T19:57:06.685Z,15.13
2023-11-29T19:59:34.376Z,14.80
2023-11-29T20:02:02.440Z,15.40
2023-11-29T20:04:29.530Z,14.50
2023-11-29T20:06:56.601Z,16.08
2023-11-29T20:09:24.429Z,16.77
2023-11-29T20:11:52.430Z,17.95
2023-11-29T20:14:25.721Z,18.23
2023-11-29T20:16:59.956Z,17.90
2023-11-29T20:19:27.627Z,17.20
2023-11-29T20:21:54.690Z,17.60
2023-11-29T20:24:22.601Z,15.15
2023-11-29T20:26:51.047Z,15.35
2023-11-29T20:29:18.100Z,14.63
2023-11-29T20:31:46.067Z,14.13
2023-11-29T20:34:21.311Z,14.10
2023-11-29T20:36:57.656Z,14.68
2023-11-29T20:39:25.275Z,13.98
2023-11-29T20:41:52.613Z,14.93
2023-11-29T20:44:19.885Z,17.17
2023-11-29T20:46:46.744Z,16.75
2023-11-29T20:49:13.749Z,18.48
2023-11-29T20:51:46.739Z,18.55
2023-11-29T20:54:14.982Z,20.33
2023-11-29T20:56:42.147Z,20.60
2023-11-29T20:59:09.271Z,21.55
2023-11-29T21:01:37.623Z,24.83
2023-11-29T21:04:05.023Z,24.33
2023-11-29T21:06:33.748Z,24.83
2023-11-29T21:09:00.880Z,24.27
2023-11-29T21:11:30.292Z,23.70
2023-11-29T21:13:57.429Z,23.35
2023-11-29T21:16:24.766Z,32.67
2023-11-29T21:18:53.499Z,24.35
2023-11-29T21:21:20.753Z,23.98
2023-11-29T21:23:48.499Z,26.70
2023-11-29T21:26:15.531Z,26.90
2023-11-29T21:28:43.350Z,25.02
2023-11-29T21:31:11.490Z,24.42
2023-11-29T21:33:39.429Z,25.27
2023-11-29T21:36:07.021Z,23.90
2023-11-29T21:38:34.082Z,25.80
2023-11-29T21:41:02.723Z,24.35
2023-11-29T21:43:31.582Z,24.45
2023-11-29T21:45:58.895Z,24.35
2023-11-29T21:48:25.921Z,28.48
2023-11-29T21:50:52.848Z,25.83
2023-11-29T21:53:20.555Z,24.13
2023-11-29T21:55:48.205Z,22.70
2023-11-29T21:58:15.887Z,24.60
2023-11-29T22:00:42.807Z,23.38
2023-11-29T22:03:10.213Z,24.55
2023-11-29T22:05:38.271Z,24.98
2023-11-29T22:08:05.174Z,23.42
2023-11-29T22:10:34.589Z,23.88
2023-11-29T22:13:01.914Z,23.90
2023-11-29T22:15:29.157Z,24.83
2023-11-29T22:17:56.039Z,25.70
2023-11-29T22:20:22.909Z,24.77
2023-11-29T22:22:49.727Z,24.38
2023-11-29T22:25:17.280Z,23.08
2023-11-29T22:27:44.532Z,24.88
2023-11-29T22:30:12.549Z,24.25
2023-11-29T22:32:42.310Z,23.52
2023-11-29T22:35:10.338Z,24.70
2023-11-29T22:37:37.240Z,22.95
2023-11-29T22:40:04.444Z,20.95
2023-11-29T22:42:31.348Z,20.30
2023-11-29T22:44:58.292Z,18.85
2023-11-29T22:47:26.273Z,17.90
2023-11-29T22:49:53.219Z,19.27
2023-11-29T22:52:20.076Z,17.85
2023-11-29T22:54:47.060Z,18.30
2023-11-29T22:57:13.973Z,16.90
2023-11-29T22:59:41.295Z,15.65
2023-11-29T23:02:08.443Z,14.77
2023-11-29T23:04:35.291Z,14.38
2023-11-29T23:07:02.168Z,13.45
2023-11-29T23:09:29.114Z,14.00
2023-11-29T23:11:56.068Z,12.80
2023-11-29T23:14:22.960Z,12.57
2023-11-29T23:16:49.867Z,12.57
2023-11-29T23:19:16.924Z,12.85
2023-11-29T23:21:43.777Z,12.00
2023-11-29T23:24:10.657Z,12.98
2023-11-29T23:26:37.612Z,12.82
2023-11-29T23:29:04.484Z,11.85
2023-11-29T23:31:31.336Z,11.50
2023-11-29T23:33:58.380Z,11.95
2023-11-29T23:36:25.300Z,11.43
2023-11-29T23:38:52.181Z,10.88
2023-11-29T23:41:19.067Z,10.88
2023-11-29T23:43:45.893Z,14.60
2023-11-29T23:46:12.774Z,11.77
2023-11-29T23:48:39.862Z,12.02
2023-11-29T23:51:07.099Z,12.07
2023-11-29T23:53:33.930Z,11.70
2023-11-29T23:56:00.784Z,11.07
2023-11-29T23:58:27.606Z,10.80
